createdAt,value
2018-02-25T00:02:10.510Z,101144.98
2018-02-25T00:04:37.969Z,101151.44
2018-02-25T00:07:05.388Z,101144.81
2018-02-25T00:09:32.781Z,101148.08
2018-02-25T00:12:00.156Z,101152.78
2018-02-25T00:14:27.548Z,101155.02
2018-02-25T00:16:54.944Z,101154.94
2018-02-25T00:19:22.388Z,101157.88
2018-02-25T00:21:49.784Z,101156.25
2018-02-25T00:24:17.214Z,101157.58
2018-02-25T00:26:44.584Z,101156.03
2018-02-25T00:29:11.973Z,101151.69
2018-02-25T00:31:39.356Z,101150.91
2018-02-25T00:34:06.734Z,101167.34
2018-02-25T00:36:34.166Z,101164.42
2018-02-25T00:39:01.537Z,101158.00
2018-02-25T00:41:28.998Z,101143.11
2018-02-25T00:43:56.581Z,101159.47
2018-02-25T00:46:23.961Z,101154.55
2018-02-25T00:48:51.327Z,101153.50
2018-02-25T00:51:18.731Z,101149.65
2018-02-25T00:53:46.091Z,101154.81
2018-02-25T00:56:13.553Z,101156.72
2018-02-25T00:58:41.105Z,101150.09
2018-02-25T01:01:08.495Z,101153.30
2018-02-25T01:03:35.981Z,101151.71
2018-02-25T01:06:03.364Z,101152.49
2018-02-25T01:08:31.679Z,101156.95
2018-02-25T01:10:59.102Z,101171.02
2018-02-25T01:13:26.869Z,101179.61
2018-02-25T01:15:54.512Z,101180.64
2018-02-25T01:18:21.905Z,101177.01
2018-02-25T01:20:49.342Z,101184.14
2018-02-25T01:23:16.718Z,101189.48
2018-02-25T01:25:44.129Z,101185.60
2018-02-25T01:28:11.712Z,101175.09
2018-02-25T01:30:39.169Z,101186.11
2018-02-25T01:33:06.575Z,101183.86
2018-02-25T01:35:34.596Z,101178.91
2018-02-25T01:38:01.954Z,101185.58
2018-02-25T01:40:29.338Z,101182.97
2018-02-25T01:42:56.751Z,101183.52
2018-02-25T01:45:24.166Z,101191.19
2018-02-25T01:47:51.535Z,101191.92
2018-02-25T01:50:18.926Z,101189.58
2018-02-25T01:52:46.295Z,101182.01
2018-02-25T01:55:14.847Z,101179.62
2018-02-25T01:57:42.282Z,101175.34
2018-02-25T02:00:09.666Z,101177.20
2018-02-25T02:02:37.052Z,101189.11
2018-02-25T02:05:04.456Z,101177.58
2018-02-25T02:07:32.018Z,101181.34
2018-02-25T02:09:59.587Z,101180.04
2018-02-25T02:12:27.027Z,101184.26
2018-02-25T02:14:54.565Z,101182.13
2018-02-25T02:17:21.997Z,101177.23
2018-02-25T02:19:49.392Z,101183.12
2018-02-25T02:22:16.850Z,101174.89
2018-02-25T02:24:44.268Z,101179.84
2018-02-25T02:27:11.666Z,101185.48
2018-02-25T02:29:39.059Z,101189.37
2018-02-25T02:32:06.441Z,101186.53
2018-02-25T02:34:33.850Z,101186.00
2018-02-25T02:37:01.240Z,101190.40
2018-02-25T02:39:28.611Z,101182.30
2018-02-25T02:41:56.016Z,101186.59
2018-02-25T02:44:23.406Z,101189.33
2018-02-25T02:46:50.772Z,101183.14
2018-02-25T02:49:18.187Z,101182.17
2018-02-25T02:51:45.574Z,101190.72
2018-02-25T02:54:13.963Z,101192.22
2018-02-25T02:56:41.419Z,101188.11
2018-02-25T02:59:08.867Z,101190.46
2018-02-25T03:01:36.226Z,101189.29
2018-02-25T03:04:03.679Z,101193.75
2018-02-25T03:06:31.048Z,101193.70
2018-02-25T03:08:58.504Z,101192.22
2018-02-25T03:11:25.949Z,101194.55
2018-02-25T03:13:53.409Z,101196.66
2018-02-25T03:16:20.772Z,101195.35
2018-02-25T03:18:48.160Z,101192.22
2018-02-25T03:21:15.574Z,101188.25
2018-02-25T03:23:42.929Z,101187.64
2018-02-25T03:26:10.374Z,101178.63
2018-02-25T03:28:37.750Z,101191.06
2018-02-25T03:31:05.175Z,101196.47
2018-02-25T03:33:32.549Z,101194.14
2018-02-25T03:36:00.966Z,101198.31
2018-02-25T03:38:28.356Z,101207.72
2018-02-25T03:40:55.739Z,101198.67
2018-02-25T03:43:23.296Z,101202.79
2018-02-25T03:45:50.679Z,101211.85
2018-02-25T03:48:18.110Z,101218.05
2018-02-25T03:50:45.658Z,101221.92
2018-02-25T03:53:13.033Z,101223.48
2018-02-25T03:55:40.522Z,101220.81
2018-02-25T03:58:07.970Z,101222.38
2018-02-25T04:00:35.392Z,101234.91
2018-02-25T04:03:03.150Z,101224.59
2018-02-25T04:05:30.589Z,101227.27
2018-02-25T04:07:57.962Z,101230.92
2018-02-25T04:10:25.348Z,101233.61
2018-02-25T04:12:52.730Z,101236.80
2018-02-25T04:15:20.123Z,101236.73
2018-02-25T04:17:47.691Z,101242.42
2018-02-25T04:20:18.422Z,101238.23
2018-02-25T04:22:45.800Z,101249.34
2018-02-25T04:25:13.301Z,101254.01
2018-02-25T04:27:40.709Z,101250.83
2018-02-25T04:30:08.372Z,101251.44
2018-02-25T04:32:36.112Z,101257.60
2018-02-25T04:35:03.495Z,101259.73
2018-02-25T04:37:31.044Z,101261.23
2018-02-25T04:39:58.430Z,101269.61
2018-02-25T04:42:26.150Z,101268.94
2018-02-25T04:44:53.550Z,101266.88
2018-02-25T04:47:20.960Z,101269.19
2018-02-25T04:49:48.365Z,101265.97
2018-02-25T04:52:16.033Z,101266.20
2018-02-25T04:54:43.453Z,101273.39
2018-02-25T04:57:10.934Z,101271.19
2018-02-25T04:59:38.561Z,101268.59
2018-02-25T05:02:05.969Z,101274.86
2018-02-25T05:04:33.355Z,101273.20
2018-02-25T05:07:00.740Z,101268.69
2018-02-25T05:09:28.130Z,101270.76
2018-02-25T05:11:55.594Z,101277.03
2018-02-25T05:14:23.095Z,101275.67
2018-02-25T05:16:50.517Z,101280.03
2018-02-25T05:19:17.953Z,101294.26
2018-02-25T05:21:46.046Z,101288.88
2018-02-25T05:24:13.435Z,101285.44
2018-02-25T05:26:40.822Z,101294.70
2018-02-25T05:29:08.211Z,101292.13
2018-02-25T05:31:35.670Z,101291.22
2018-02-25T05:34:03.060Z,101295.55
2018-02-25T05:36:30.445Z,101295.45
2018-02-25T05:38:57.826Z,101293.24
2018-02-25T05:41:25.312Z,101295.17
2018-02-25T05:43:52.755Z,101297.45
2018-02-25T05:46:20.123Z,101294.55
2018-02-25T05:48:48.348Z,101297.31
2018-02-25T05:51:16.591Z,101299.57
2018-02-25T05:53:44.993Z,101295.80
2018-02-25T05:56:12.378Z,101298.66
2018-02-25T05:58:39.775Z,101306.77
2018-02-25T06:01:07.177Z,101309.14
2018-02-25T06:03:34.614Z,101302.06
2018-02-25T06:06:02.014Z,101308.54
2018-02-25T06:08:29.404Z,101307.27
2018-02-25T06:10:56.833Z,101315.78
2018-02-25T06:13:24.321Z,101320.28
2018-02-25T06:15:51.863Z,101317.51
2018-02-25T06:18:19.310Z,101331.84
2018-02-25T06:20:47.046Z,101321.44
2018-02-25T06:23:15.132Z,101327.22
2018-02-25T06:25:42.513Z,101332.47
2018-02-25T06:28:09.905Z,101321.75
2018-02-25T06:30:37.360Z,101321.58
2018-02-25T06:33:04.737Z,101335.14
2018-02-25T06:35:32.134Z,101326.21
2018-02-25T06:37:59.526Z,101330.91
2018-02-25T06:40:26.920Z,101327.38
2018-02-25T06:42:54.334Z,101328.53
2018-02-25T06:45:21.751Z,101322.48
2018-02-25T06:47:49.158Z,101325.75
2018-02-25T06:50:16.553Z,101323.03
2018-02-25T06:52:43.928Z,101328.54
2018-02-25T06:55:11.329Z,101321.64
2018-02-25T06:57:38.722Z,101320.48
2018-02-25T07:00:06.167Z,101325.39
2018-02-25T07:02:33.550Z,101327.63
2018-02-25T07:05:00.938Z,101326.35
2018-02-25T07:07:28.319Z,101327.28
2018-02-25T07:09:55.731Z,101329.23
2018-02-25T07:12:23.169Z,101337.48
2018-02-25T07:29:12.414Z,101331.69
2018-02-25T07:31:39.899Z,101326.88
2018-02-25T07:34:07.354Z,101336.30
2018-02-25T07:36:34.766Z,101330.94
2018-02-25T07:39:02.477Z,101331.41
2018-02-25T07:41:29.880Z,101327.84
2018-02-25T07:43:57.303Z,101331.27
2018-02-25T07:46:24.925Z,101330.34
2018-02-25T07:48:52.350Z,101331.43
2018-02-25T07:51:19.737Z,101332.89
2018-02-25T07:53:47.137Z,101335.72
2018-02-25T07:56:15.489Z,101332.36
2018-02-25T07:58:42.861Z,101337.63
2018-02-25T08:01:10.248Z,101333.14
2018-02-25T08:03:37.734Z,101333.08
2018-02-25T08:06:05.098Z,101325.49
2018-02-25T08:08:32.490Z,101327.48
2018-02-25T08:10:59.891Z,101330.83
2018-02-25T08:13:27.275Z,101321.22
2018-02-25T08:15:54.716Z,101326.68
2018-02-25T08:18:22.138Z,101326.27
2018-02-25T08:20:49.518Z,101328.53
2018-02-25T08:23:16.898Z,101332.80
2018-02-25T08:25:44.293Z,101327.69
2018-02-25T08:28:11.678Z,101322.34
2018-02-25T08:30:39.077Z,101332.04
2018-02-25T08:33:06.470Z,101330.67
2018-02-25T08:35:33.933Z,101331.58
2018-02-25T08:38:01.375Z,101329.60
2018-02-25T08:40:28.750Z,101333.85
2018-02-25T08:42:56.236Z,101343.90
2018-02-25T08:45:23.715Z,101332.34
2018-02-25T08:47:51.112Z,101329.61
2018-02-25T08:50:18.677Z,101328.66
2018-02-25T08:52:46.232Z,101319.28
2018-02-25T08:55:13.627Z,101304.53
2018-02-25T08:57:41.011Z,101305.28
2018-02-25T09:00:08.388Z,101304.30
2018-02-25T09:02:35.766Z,101309.41
2018-02-25T09:05:03.143Z,101301.08
2018-02-25T09:07:30.507Z,101301.44
2018-02-25T09:09:58.348Z,101304.03
2018-02-25T09:12:25.719Z,101315.81
2018-02-25T09:14:53.091Z,101309.17
2018-02-25T09:17:20.550Z,101302.61
2018-02-25T09:19:47.937Z,101308.64
2018-02-25T09:22:15.855Z,101307.17
2018-02-25T09:24:43.276Z,101307.63
2018-02-25T09:27:10.733Z,101315.79
2018-02-25T09:29:38.111Z,101306.69
2018-02-25T09:32:05.477Z,101311.02
2018-02-25T09:34:32.878Z,101306.52
2018-02-25T09:37:00.395Z,101310.63
2018-02-25T09:39:27.814Z,101299.64
2018-02-25T09:41:55.188Z,101309.87
2018-02-25T09:44:22.572Z,101303.20
2018-02-25T09:46:49.949Z,101306.02
2018-02-25T09:49:17.436Z,101304.92
2018-02-25T09:51:44.803Z,101300.27
2018-02-25T09:54:12.306Z,101293.48
2018-02-25T09:56:39.671Z,101299.78
2018-02-25T09:59:07.421Z,101299.45
2018-02-25T10:01:34.818Z,101293.59
2018-02-25T10:04:02.191Z,101287.75
2018-02-25T10:06:29.565Z,101290.73
2018-02-25T10:08:56.948Z,101290.98
2018-02-25T10:11:24.431Z,101295.30
2018-02-25T10:13:51.826Z,101295.58
2018-02-25T10:16:19.680Z,101286.22
2018-02-25T10:18:47.063Z,101290.94
2018-02-25T10:21:14.470Z,101284.30
2018-02-25T10:23:42.230Z,101294.48
2018-02-25T10:26:09.649Z,101287.63
2018-02-25T10:28:37.230Z,101280.16
2018-02-25T10:31:04.824Z,101284.52
2018-02-25T10:33:32.186Z,101282.01
2018-02-25T10:35:59.548Z,101283.06
2018-02-25T10:38:27.046Z,101283.22
2018-02-25T10:40:54.450Z,101282.20
2018-02-25T10:43:21.824Z,101276.98
2018-02-25T10:45:49.188Z,101267.58
2018-02-25T10:48:16.840Z,101260.65
2018-02-25T10:50:44.273Z,101258.23
2018-02-25T10:53:11.825Z,101260.16
2018-02-25T10:55:39.373Z,101253.84
2018-02-25T10:58:06.779Z,101250.80
2018-02-25T11:00:36.933Z,101247.94
2018-02-25T11:03:04.290Z,101252.07
2018-02-25T11:05:31.755Z,101249.36
2018-02-25T11:08:00.596Z,101236.42
2018-02-25T11:10:28.132Z,101234.24
2018-02-25T11:12:55.506Z,101229.39
2018-02-25T11:15:22.870Z,101223.36
2018-02-25T11:17:50.281Z,101230.16
2018-02-25T11:20:17.651Z,101227.55
2018-02-25T11:22:45.095Z,101231.52
2018-02-25T11:25:12.642Z,101222.22
2018-02-25T11:27:40.110Z,101229.44
2018-02-25T11:30:07.598Z,101233.95
2018-02-25T11:32:35.003Z,101233.55
2018-02-25T11:35:03.274Z,101230.60
2018-02-25T11:37:30.657Z,101219.76
2018-02-25T11:39:58.102Z,101219.17
2018-02-25T11:42:25.635Z,101213.67
2018-02-25T11:44:53.018Z,101208.34
2018-02-25T11:47:20.394Z,101208.94
2018-02-25T11:49:47.880Z,101209.61
2018-02-25T11:52:15.438Z,101205.09
2018-02-25T11:54:42.818Z,101200.86
2018-02-25T11:57:10.198Z,101196.60
2018-02-25T11:59:37.563Z,101199.67
2018-02-25T12:02:05.098Z,101194.38
2018-02-25T12:04:32.952Z,101190.55
2018-02-25T12:07:00.513Z,101186.30
2018-02-25T12:09:28.077Z,101178.80
2018-02-25T12:11:55.263Z,101170.34
2018-02-25T12:14:22.655Z,101176.13
2018-02-25T12:16:50.022Z,101173.80
2018-02-25T12:19:17.614Z,101164.66
2018-02-25T12:21:45.094Z,101165.64
2018-02-25T12:24:12.502Z,101162.91
2018-02-25T12:26:39.888Z,101158.45
2018-02-25T12:29:07.249Z,101153.06
2018-02-25T12:31:34.680Z,101148.52
2018-02-25T12:34:02.022Z,101143.92
2018-02-25T12:36:29.426Z,101140.41
2018-02-25T12:38:56.794Z,101131.97
2018-02-25T12:41:24.341Z,101128.67
2018-02-25T12:43:51.725Z,101127.23
2018-02-25T12:46:19.107Z,101121.69
2018-02-25T12:48:46.710Z,101123.12
2018-02-25T12:51:14.119Z,101115.44
2018-02-25T12:53:41.498Z,101108.84
2018-02-25T12:56:08.947Z,101100.33
2018-02-25T12:58:36.346Z,101106.59
2018-02-25T13:01:03.715Z,101096.45
2018-02-25T13:03:31.102Z,101095.25
2018-02-25T13:05:58.470Z,101091.60
2018-02-25T13:08:25.853Z,101090.83
2018-02-25T13:10:53.214Z,101094.66
2018-02-25T13:13:20.618Z,101072.11
2018-02-25T13:15:48.024Z,101074.52
2018-02-25T13:18:15.391Z,101061.78
2018-02-25T13:20:43.138Z,101060.31
2018-02-25T13:23:10.534Z,101054.13
2018-02-25T13:25:37.892Z,101050.02
2018-02-25T13:28:05.322Z,101053.70
2018-02-25T13:30:32.693Z,101048.08
2018-02-25T13:33:00.061Z,101043.78
2018-02-25T13:35:27.458Z,101037.19
2018-02-25T13:37:54.826Z,101037.88
2018-02-25T13:40:22.231Z,101025.81
2018-02-25T13:42:49.615Z,101026.52
2018-02-25T13:45:17.093Z,101035.31
2018-02-25T13:47:44.441Z,101026.92
2018-02-25T13:50:11.935Z,101029.11
2018-02-25T13:52:39.312Z,101027.02
2018-02-25T13:55:07.682Z,101025.09
2018-02-25T13:57:35.966Z,101034.66
2018-02-25T14:00:03.444Z,101018.98
2018-02-25T14:02:32.034Z,101022.47
2018-02-25T14:04:59.418Z,101024.23
2018-02-25T14:07:27.835Z,101021.39
2018-02-25T14:09:55.222Z,101017.97
2018-02-25T14:12:22.612Z,101013.98
2018-02-25T14:14:50.052Z,101013.19
2018-02-25T14:17:17.454Z,101013.94
2018-02-25T14:19:44.826Z,101017.98
2018-02-25T14:22:12.211Z,101014.25
2018-02-25T14:24:39.624Z,101019.42
2018-02-25T14:27:07.003Z,101015.92
2018-02-25T14:29:34.387Z,101003.77
2018-02-25T14:32:01.779Z,101009.13
2018-02-25T14:34:29.155Z,100997.41
2018-02-25T14:36:56.522Z,100998.46
2018-02-25T14:39:23.890Z,101004.75
2018-02-25T14:41:51.261Z,101004.16
2018-02-25T14:44:18.633Z,100999.60
2018-02-25T14:46:46.015Z,100996.78
2018-02-25T14:49:13.507Z,101006.00
2018-02-25T14:51:40.829Z,101006.60
2018-02-25T14:54:08.212Z,101004.03
2018-02-25T14:56:35.584Z,100994.39
2018-02-25T14:59:03.148Z,100992.80
2018-02-25T15:01:30.505Z,100991.88
2018-02-25T15:03:58.079Z,100985.09
2018-02-25T15:06:25.656Z,100995.98
2018-02-25T15:08:53.290Z,100993.33
2018-02-25T15:11:20.691Z,100996.31
2018-02-25T15:13:48.068Z,100997.66
2018-02-25T15:16:15.439Z,101002.91
2018-02-25T15:18:42.874Z,101005.78
2018-02-25T15:21:10.282Z,101006.25
2018-02-25T15:23:37.998Z,101015.38
2018-02-25T15:26:05.406Z,101003.55
2018-02-25T15:28:32.806Z,101003.77
2018-02-25T15:31:04.377Z,101009.59
2018-02-25T15:33:32.123Z,101009.64
2018-02-25T15:35:59.491Z,101006.16
2018-02-25T15:38:26.862Z,101009.30
2018-02-25T15:40:54.229Z,101006.63
2018-02-25T15:43:21.623Z,101005.47
2018-02-25T15:45:48.979Z,101005.81
2018-02-25T15:48:16.358Z,101012.52
2018-02-25T15:50:43.805Z,101009.67
2018-02-25T15:53:11.178Z,101010.97
2018-02-25T15:55:38.547Z,101010.77
2018-02-25T15:58:05.974Z,101014.78
2018-02-25T16:00:33.350Z,101016.11
2018-02-25T16:03:00.722Z,101023.56
2018-02-25T16:05:28.339Z,101016.92
2018-02-25T16:07:55.716Z,101024.84
2018-02-25T16:10:23.075Z,101022.19
2018-02-25T16:12:50.450Z,101020.44
2018-02-25T16:15:17.843Z,101023.59
2018-02-25T16:17:45.201Z,101022.20
2018-02-25T16:20:12.568Z,101017.82
2018-02-25T16:22:40.951Z,101026.59
2018-02-25T16:25:08.310Z,101029.69
2018-02-25T16:27:35.667Z,101028.66
2018-02-25T16:30:03.050Z,101033.48
2018-02-25T16:32:30.417Z,101035.62
2018-02-25T16:34:57.825Z,101039.22
2018-02-25T16:37:25.214Z,101036.93
2018-02-25T16:39:52.590Z,101038.06
2018-02-25T16:42:19.980Z,101046.92
2018-02-25T16:44:47.683Z,101049.11
2018-02-25T16:47:15.124Z,101052.12
2018-02-25T16:49:42.515Z,101058.75
2018-02-25T16:52:09.889Z,101061.58
2018-02-25T16:54:37.302Z,101064.39
2018-02-25T16:57:04.662Z,101065.66
2018-02-25T16:59:32.027Z,101067.29
2018-02-25T17:01:59.583Z,101072.94
2018-02-25T17:04:26.939Z,101069.66
2018-02-25T17:06:54.310Z,101074.80
2018-02-25T17:09:21.679Z,101076.67
2018-02-25T17:11:49.070Z,101085.83
2018-02-25T17:14:16.458Z,101088.98
2018-02-25T17:16:43.887Z,101084.77
2018-02-25T17:19:11.251Z,101090.47
2018-02-25T17:21:38.659Z,101094.20
2018-02-25T17:24:06.033Z,101088.36
2018-02-25T17:26:33.440Z,101094.21
2018-02-25T17:29:00.902Z,101097.66
2018-02-25T17:31:28.271Z,101095.81
2018-02-25T17:33:55.668Z,101102.69
2018-02-25T17:36:23.271Z,101100.00
2018-02-25T17:38:50.658Z,101102.36
2018-02-25T17:41:18.018Z,101101.19
2018-02-25T17:43:45.409Z,101104.75
2018-02-25T17:46:12.785Z,101094.64
2018-02-25T17:48:40.155Z,101105.44
2018-02-25T17:51:07.530Z,101102.83
2018-02-25T17:53:34.922Z,101102.36
2018-02-25T17:56:02.292Z,101105.56
2018-02-25T17:58:29.838Z,101103.76
2018-02-25T18:00:57.217Z,101101.30
2018-02-25T18:03:24.693Z,101108.88
2018-02-25T18:05:52.086Z,101105.31
2018-02-25T18:08:19.477Z,101117.84
2018-02-25T18:10:46.843Z,101110.12
2018-02-25T18:13:14.206Z,101114.50
2018-02-25T18:15:41.586Z,101110.95
2018-02-25T18:18:09.014Z,101113.97
2018-02-25T18:20:36.390Z,101115.75
2018-02-25T18:23:03.958Z,101117.80
2018-02-25T18:25:31.313Z,101113.14
2018-02-25T18:27:58.815Z,101111.33
2018-02-25T18:30:26.346Z,101112.58
2018-02-25T18:32:53.716Z,101118.28
2018-02-25T18:35:21.104Z,101113.49
2018-02-25T18:37:48.517Z,101123.53
2018-02-25T18:40:15.949Z,101122.00
2018-02-25T18:42:43.413Z,101116.14
2018-02-25T18:45:10.795Z,101120.40
2018-02-25T18:47:38.218Z,101126.50
2018-02-25T18:50:05.635Z,101122.19
2018-02-25T18:52:33.206Z,101127.34
2018-02-25T18:55:00.647Z,101123.12
2018-02-25T18:57:28.218Z,101121.77
2018-02-25T18:59:55.743Z,101123.05
2018-02-25T19:02:23.138Z,101126.52
2018-02-25T19:04:50.494Z,101116.56
2018-02-25T19:07:17.999Z,101122.85
2018-02-25T19:09:45.491Z,101125.34
2018-02-25T19:12:12.840Z,101135.16
2018-02-25T19:14:41.025Z,101130.66
2018-02-25T19:17:08.383Z,101136.73
2018-02-25T19:19:35.778Z,101133.31
2018-02-25T19:22:03.143Z,101134.22
2018-02-25T19:24:32.486Z,101129.58
2018-02-25T19:26:59.953Z,101123.70
2018-02-25T19:29:27.368Z,101132.84
2018-02-25T19:31:54.904Z,101131.78
2018-02-25T19:34:22.346Z,101138.66
2018-02-25T19:36:55.254Z,101145.14
2018-02-25T19:39:28.232Z,101142.70
2018-02-25T19:41:55.621Z,101144.52
2018-02-25T19:44:22.987Z,101141.91
2018-02-25T19:46:50.377Z,101136.47
2018-02-25T19:49:17.762Z,101142.32
2018-02-25T19:51:45.145Z,101145.08
2018-02-25T19:54:12.590Z,101149.47
2018-02-25T19:56:39.970Z,101147.89
2018-02-25T19:59:07.450Z,101152.03
2018-02-25T20:01:34.903Z,101151.27
2018-02-25T20:04:02.311Z,101149.47
2018-02-25T20:06:29.722Z,101157.88
2018-02-25T20:08:57.095Z,101153.27
2018-02-25T20:11:25.450Z,101157.25
2018-02-25T20:13:52.825Z,101162.28
2018-02-25T20:16:20.195Z,101168.69
2018-02-25T20:18:47.590Z,101165.25
2018-02-25T20:21:14.983Z,101166.55
2018-02-25T20:23:42.810Z,101163.95
2018-02-25T20:26:10.309Z,101162.72
2018-02-25T20:28:37.689Z,101172.32
2018-02-25T20:31:05.055Z,101171.25
2018-02-25T20:33:32.443Z,101172.70
2018-02-25T20:35:59.811Z,101173.78
2018-02-25T20:38:27.567Z,101176.88
2018-02-25T20:40:54.974Z,101175.28
2018-02-25T20:43:22.400Z,101179.47
2018-02-25T20:45:49.785Z,101179.80
2018-02-25T20:48:17.146Z,101175.84
2018-02-25T20:50:44.555Z,101179.63
2018-02-25T20:53:11.921Z,101181.73
2018-02-25T20:55:39.529Z,101188.78
2018-02-25T20:58:07.010Z,101192.21
2018-02-25T21:00:34.393Z,101187.02
2018-02-25T21:03:01.968Z,101190.45
2018-02-25T21:05:29.346Z,101193.03
2018-02-25T21:07:56.841Z,101194.41
2018-02-25T21:10:24.365Z,101198.14
2018-02-25T21:12:51.901Z,101196.57
2018-02-25T21:15:20.040Z,101198.94
2018-02-25T21:17:47.498Z,101202.34
2018-02-25T21:20:14.870Z,101205.03
2018-02-25T21:22:43.140Z,101207.89
2018-02-25T21:25:10.628Z,101210.17
2018-02-25T21:27:38.138Z,101206.94
2018-02-25T21:30:05.540Z,101208.68
2018-02-25T21:32:33.003Z,101210.59
2018-02-25T21:35:00.368Z,101216.87
2018-02-25T21:37:27.999Z,101215.73
2018-02-25T21:39:55.953Z,101217.20
2018-02-25T21:42:24.347Z,101213.13
2018-02-25T21:57:45.129Z,101213.64
2018-02-25T22:00:13.405Z,101216.80
2018-02-25T22:02:46.435Z,101215.11
2018-02-25T22:05:14.034Z,101219.63
2018-02-25T22:07:41.407Z,101216.09
2018-02-25T22:10:08.890Z,101213.51
2018-02-25T22:12:36.381Z,101215.98
2018-02-25T22:15:03.976Z,101216.02
2018-02-25T22:17:31.330Z,101216.43
2018-02-25T22:19:59.559Z,101221.72
2018-02-25T22:22:27.105Z,101221.23
2018-02-25T22:24:54.458Z,101215.61
2018-02-25T22:27:21.842Z,101223.24
2018-02-25T22:29:49.215Z,101220.15
2018-02-25T22:32:16.582Z,101216.47
2018-02-25T22:34:44.219Z,101214.08
2018-02-25T22:37:11.611Z,101223.80
2018-02-25T22:39:39.096Z,101221.19
2018-02-25T22:42:07.208Z,101217.55
2018-02-25T22:44:35.258Z,101218.45
2018-02-25T22:47:02.654Z,101211.30
2018-02-25T22:49:30.021Z,101219.19
2018-02-25T22:51:57.481Z,101217.27
2018-02-25T22:54:24.802Z,101226.09
2018-02-25T22:56:53.149Z,101227.05
2018-02-25T22:59:20.539Z,101231.34
2018-02-25T23:01:47.917Z,101230.19
2018-02-25T23:04:17.326Z,101229.77
2018-02-25T23:06:45.921Z,101237.28
2018-02-25T23:09:13.414Z,101233.46
2018-02-25T23:11:40.791Z,101229.34
2018-02-25T23:14:08.163Z,101234.67
2018-02-25T23:16:35.632Z,101239.12
2018-02-25T23:19:02.979Z,101238.89
2018-02-25T23:21:30.366Z,101238.96
2018-02-25T23:23:57.762Z,101236.52
2018-02-25T23:26:25.319Z,101232.31
2018-02-25T23:28:52.738Z,101242.06
2018-02-25T23:31:20.114Z,101229.66
2018-02-25T23:33:47.498Z,101239.48
2018-02-25T23:36:14.865Z,101232.58
2018-02-25T23:38:42.242Z,101235.82
2018-02-25T23:41:09.613Z,101232.68
2018-02-25T23:43:37.014Z,101233.52
2018-02-25T23:46:04.372Z,101232.73
2018-02-25T23:48:31.782Z,101236.30
2018-02-25T23:50:59.158Z,101241.53
2018-02-25T23:53:26.531Z,101233.96
2018-02-25T23:55:53.904Z,101237.11
2018-02-25T23:58:21.323Z,101240.97
